Terminal Aerodrome Forecast
Issued by NWS Atlanta, GA

Home | Current Version | Previous Version | Text Only | Print | Product List | Glossary On
Versions: 1 2 3 4 5 6 7 8 9 10 11 12 13 14 15 16 17 18 19 20 21 22 23
000
FTUS42 KFFC 311125
TAFMCN
TAF
KMCN 311125Z 3112/0112 34003KT P6SM FEW250
     FM311500 10005KT P6SM FEW030
     FM311800 16005KT P6SM BKN050
     FM010100 00000KT P6SM SCT060=

USA.gov is the U.S. government's official web portal to all federal, state and local government web resources and services.